Huvudsida
METAR-TAF:

METAR-TAF

Flygplatser :

Turaif, Saudiarabien

latitud: 31-41N, longitud: 038-44E, höjd: 813 m

Aktuellt väderrapport

Denna rapport gjordes för 1 timme och 13 minuter sedan, klockan 02:00 UTC
Vind 16 kt från väst/nordväst
Temperatur -1°C
Fuktighet 100%
Tryck 1021 hPa
Sikt 10 km eller mer
Inga moln under 1 500 m eller inga cumulonimbus

METAR: OETR 250200Z 30016KT CAVOK M01/M01 Q1021

Tid: 06:13 (03:13 UTC)

Väderprognos

Denna rapport gjordes för 4 timmar och 13 minuter sedan, klockan 23:00 UTC
Prognos gäller från 25 kl. 00 UTC till 26 kl. 06 UTC
Vind 15 kt från nord/nordväst
Sikt: 7000 m
Spridda moln på en höjd av 2500 ft
Temporärt
från 25 kl. 02 UTC till 25 kl. 08 UTC
Brutna moln på en höjd av 2000 ft
snö
Blir
från 25 kl. 18 UTC till 25 kl. 20 UTC
Vind 3 kt varierande vindriktning
Temporärt
från 25 kl. 18 UTC till 26 kl. 06 UTC
Sikt: 2500 m
fuktdis

TAF: OETR 242300Z 2500/2606 33015KT 7000 SCT025 TEMPO 2502/2508 SN BKN020 BECMG 2518/2520 VRB03KT TEMPO 2518/2606 2500 BR

Aktuella väderrapporter och prognoser från 4000 flygplatser (METAR- och TAF-rapporter).

De tillgängliga stationerna syns som gula och röda prickar på kartan.

För musen över prickarna för att se namnen på stationerna.

Klicka sedan för att få väderrapporter och prognoser.

För att ändra kartan: Klicka på de gröna knapparna med ett svart kors på för att zooma in; den gröna knappen med ett streck på för att zooma ut; eller på de gröna pilarna för angränsande kartor.


METAR-TAF: